Time;durP1;ratioP1;P1;durP2;ratioP2;P2;SDS_P1;SDS_P2;PMS_P1;PMS_P2;Temp;Humidity;BMP_temperature;BMP_pressure;BME280_temperature;BME280_humidity;BME280_pressure;Samples;Min_cycle;Max_cycle;Signal;HPM_P1;HPM_P2
2023/06/08 04:44:34;;;;;;;8.10;4.90;;;;;;;16.91;66.13;101189.30;104343;1283;599185;-66
2023/06/08 04:47:07;;;;;;;11.00;4.20;;;;;;;16.96;65.77;101190.81;106346;1261;57237;-65
2023/06/08 04:49:38;;;;;;;10.00;5.00;;;;;;;17.08;65.52;101187.35;106945;1248;60749;-68
2023/06/08 04:52:09;;;;;;;8.20;5.30;;;;;;;17.14;65.60;101190.48;106973;1251;62822;-66
2023/06/08 04:54:39;;;;;;;9.10;4.30;;;;;;;17.26;65.38;101190.98;106898;1248;70477;-66
2023/06/08 04:57:09;;;;;;;9.80;4.80;;;;;;;17.36;64.79;101189.69;106828;1245;269864;-66
2023/06/08 04:59:38;;;;;;;11.20;5.00;;;;;;;17.44;64.93;101194.59;107150;1257;63861;-67
2023/06/08 05:02:07;;;;;;;8.80;5.10;;;;;;;17.54;64.63;101191.86;107067;1248;59016;-67
2023/06/08 05:04:36;;;;;;;9.90;5.30;;;;;;;17.67;63.91;101191.16;106941;1249;59130;-65
2023/06/08 05:07:06;;;;;;;10.70;5.10;;;;;;;17.80;63.80;101189.99;107565;1245;71879;-69
2023/06/08 05:09:35;;;;;;;8.80;4.80;;;;;;;17.89;63.72;101187.36;106968;1248;62116;-68
2023/06/08 05:12:08;;;;;;;;;;;;;;;18.00;63.60;101186.28;107029;1247;60096;-66
2023/06/08 05:14:38;;;;;;;9.20;4.30;;;;;;;18.12;63.55;101190.08;107109;1254;73801;-66
2023/06/08 05:17:08;;;;;;;16.10;4.60;;;;;;;18.23;63.14;101185.58;107030;1247;59877;-67
2023/06/08 05:19:37;;;;;;;7.80;4.30;;;;;;;18.31;62.48;101186.48;107023;1250;58973;-68
2023/06/08 05:22:06;;;;;;;9.10;4.90;;;;;;;18.35;62.20;101185.16;107107;1245;63914;-68
2023/06/08 05:24:35;;;;;;;7.60;3.90;;;;;;;18.45;62.33;101182.63;106942;1248;72351;-66
2023/06/08 05:27:05;;;;;;;11.90;4.80;;;;;;;18.56;61.76;101186.14;107013;1248;62372;-67
2023/06/08 05:29:34;;;;;;;11.70;5.10;;;;;;;18.68;61.56;101186.83;106870;1251;74290;-70
2023/06/08 05:32:06;;;;;;;9.10;4.00;;;;;;;18.75;60.98;101183.73;107102;1247;60763;-66
2023/06/08 05:34:35;;;;;;;9.90;4.10;;;;;;;18.83;60.95;101183.50;107032;1251;60755;-68
2023/06/08 05:37:07;;;;;;;11.10;4.10;;;;;;;18.97;60.71;101184.00;106757;1254;71278;-68
2023/06/08 05:39:37;;;;;;;8.70;4.00;;;;;;;19.04;60.59;101184.88;106946;1253;71935;-67
2023/06/08 05:42:07;;;;;;;9.70;5.10;;;;;;;19.16;59.83;101183.11;107056;1249;59995;-70
2023/06/08 05:44:38;;;;;;;12.50;3.70;;;;;;;19.27;58.53;101183.08;106852;1258;63078;-67
2023/06/08 05:47:08;;;;;;;18.20;4.40;;;;;;;19.39;57.81;101186.11;107233;1246;59109;-68
2023/06/08 05:49:37;;;;;;;7.90;3.50;;;;;;;19.54;57.80;101186.89;107249;1248;61291;-69
2023/06/08 05:52:06;;;;;;;6.50;3.20;;;;;;;19.65;57.58;101188.19;107188;1245;72718;-68
2023/06/08 05:54:35;;;;;;;12.90;4.80;;;;;;;19.73;57.81;101190.88;107166;1245;62392;-69
2023/06/08 05:57:05;;;;;;;9.80;3.80;;;;;;;19.90;57.35;101194.84;107246;1246;70391;-68
2023/06/08 05:59:34;;;;;;;7.30;3.40;;;;;;;20.02;56.37;101191.63;107167;1245;63991;-67
2023/06/08 06:02:04;;;;;;;9.00;3.40;;;;;;;20.13;56.00;101195.05;107200;1247;59022;-69
2023/06/08 06:04:34;;;;;;;7.10;3.90;;;;;;;20.24;56.11;101194.45;107053;1248;58973;-69
2023/06/08 06:07:06;;;;;;;12.20;3.90;;;;;;;20.32;55.45;101195.17;107207;1256;62171;-69
2023/06/08 06:09:35;;;;;;;8.40;3.60;;;;;;;20.40;55.20;101196.27;106995;1244;71486;-67
2023/06/08 06:12:07;;;;;;;10.40;4.30;;;;;;;20.48;54.83;101196.31;106820;1256;60024;-68
2023/06/08 06:14:39;;;;;;;8.30;3.30;;;;;;;20.48;54.33;101195.42;106937;1244;73636;-70
2023/06/08 06:17:09;;;;;;;10.10;3.70;;;;;;;20.45;54.16;101197.81;107073;1245;59059;-68
2023/06/08 06:19:39;;;;;;;8.10;3.90;;;;;;;20.56;54.66;101200.91;106733;1248;59037;-67
2023/06/08 06:22:10;;;;;;;7.80;3.80;;;;;;;20.71;54.59;101200.58;107030;1247;72586;-67
2023/06/08 06:24:39;;;;;;;7.30;3.70;;;;;;;20.84;54.10;101199.70;106978;1243;62012;-66
2023/06/08 06:27:11;;;;;;;9.50;3.60;;;;;;;20.80;54.11;101196.02;106908;1246;59352;-68
2023/06/08 06:29:39;;;;;;;6.70;3.80;;;;;;;20.81;53.84;101196.11;106900;1253;64300;-70
2023/06/08 06:32:08;;;;;;;10.80;4.10;;;;;;;20.98;53.15;101200.09;107073;1244;61925;-69
2023/06/08 06:34:38;;;;;;;8.40;3.30;;;;;;;20.97;52.02;101194.74;107176;1244;59767;-70
2023/06/08 06:37:09;;;;;;;7.00;3.30;;;;;;;21.10;52.10;101194.90;107304;1251;72770;-69
2023/06/08 06:39:38;;;;;;;7.60;3.50;;;;;;;21.17;52.19;101191.48;107224;1244;73599;-70
2023/06/08 06:42:09;;;;;;;10.40;3.20;;;;;;;21.31;52.58;101185.03;107215;1244;60445;-69
2023/06/08 06:44:47;;;;;;;5.00;2.80;;;;;;;21.33;49.21;101183.85;107275;1245;63521;-69
2023/06/08 06:47:16;;;;;;;6.20;2.90;;;;;;;21.39;48.05;101179.16;107255;1244;59084;-69
2023/06/08 06:49:45;;;;;;;7.80;3.10;;;;;;;21.47;47.72;101178.05;107243;1245;59006;-69
2023/06/08 06:52:14;;;;;;;5.70;3.20;;;;;;;21.62;46.77;101179.80;107164;1244;72150;-69
2023/06/08 06:54:44;;;;;;;6.80;3.00;;;;;;;21.81;46.64;101180.82;107237;1244;73292;-69
2023/06/08 06:57:13;;;;;;;9.10;2.70;;;;;;;21.58;45.80;101177.88;107259;1244;69221;-69
2023/06/08 06:59:42;;;;;;;3.70;2.60;;;;;;;21.32;45.93;101176.20;107158;1248;62589;-70
2023/06/08 07:02:12;;;;;;;6.40;2.30;;;;;;;21.31;46.81;101182.64;107253;1245;58981;-68
2023/06/08 07:04:41;;;;;;;6.20;2.80;;;;;;;21.46;46.96;101176.40;107067;1246;59119;-69
2023/06/08 07:07:10;;;;;;;6.50;3.20;;;;;;;21.60;46.41;101172.04;107207;1244;73322;-69
2023/06/08 07:09:40;;;;;;;8.90;3.10;;;;;;;21.78;45.45;101170.04;107074;1248;72959;-70
2023/06/08 07:12:09;;;;;;;7.00;2.90;;;;;;;21.81;44.48;101172.31;107307;1242;70704;-68
2023/06/08 07:14:44;;;;;;;4.10;2.70;;;;;;;21.77;44.36;101172.27;107288;1245;63073;-69
2023/06/08 07:17:14;;;;;;;8.30;2.50;;;;;;;21.84;44.91;101170.53;107108;1245;59128;-70
2023/06/08 07:19:45;;;;;;;6.70;3.00;;;;;;;21.92;43.46;101167.52;107345;1244;58159;-70
2023/06/08 07:22:31;;;;;;;5.20;2.80;;;;;;;22.03;43.82;101169.65;107319;1244;73529;-69
2023/06/08 07:25:15;;;;;;;5.90;2.90;;;;;;;22.17;44.16;101171.14;107265;1245;61520;-70
2023/06/08 07:28:05;;;;;;;5.60;3.10;;;;;;;22.19;44.00;101166.10;107334;1256;59500;-69
2023/06/08 07:30:35;;;;;;;5.50;2.70;;;;;;;22.30;43.35;101165.52;107251;1241;73853;-70
2023/06/08 07:33:06;;;;;;;5.90;2.80;;;;;;;22.52;42.66;101162.77;107151;1247;60887;-69
2023/06/08 07:35:35;;;;;;;4.40;2.40;;;;;;;22.67;42.23;101164.55;107297;1244;58999;-71
2023/06/08 07:38:04;;;;;;;14.10;3.50;;;;;;;22.50;40.40;101160.93;107280;1254;61551;-70
2023/06/08 07:40:34;;;;;;;7.50;2.50;;;;;;;22.41;40.51;101160.85;107279;1245;61199;-71
2023/06/08 07:43:03;;;;;;;5.10;2.50;;;;;;;22.28;40.39;101164.00;107413;1245;70127;-72
2023/06/08 07:45:32;;;;;;;6.90;3.10;;;;;;;22.48;40.69;101162.86;107457;1242;63768;-71
2023/06/08 07:48:01;;;;;;;5.60;2.70;;;;;;;22.70;39.29;101163.90;107287;1245;60139;-66
2023/06/08 07:50:31;;;;;;;7.10;2.50;;;;;;;22.89;38.43;101164.19;107293;1241;61281;-65
2023/06/08 07:53:00;;;;;;;9.30;2.90;;;;;;;22.82;36.16;101167.27;107246;1255;71655;-70
2023/06/08 07:55:29;;;;;;;8.80;3.20;;;;;;;22.64;37.45;101166.88;107482;1245;61600;-69
2023/06/08 07:57:59;;;;;;;4.70;2.50;;;;;;;22.84;37.29;101170.57;107422;1255;69944;-69
2023/06/08 08:00:31;;;;;;;4.00;2.20;;;;;;;23.03;37.80;101165.00;107495;1245;64412;-70
2023/06/08 08:03:00;;;;;;;5.70;3.10;;;;;;;23.12;36.99;101161.95;107220;1245;58972;-70
2023/06/08 08:05:30;;;;;;;7.00;2.90;;;;;;;23.13;35.97;101157.44;107336;1244;60982;-72
2023/06/08 08:08:01;;;;;;;4.90;2.80;;;;;;;23.31;36.23;101159.19;107259;1244;62578;-70
2023/06/08 08:10:30;;;;;;;4.50;2.20;;;;;;;23.33;36.15;101164.60;107357;1245;72178;-69
2023/06/08 08:12:59;;;;;;;5.80;2.50;;;;;;;23.38;35.63;101160.77;107319;1244;60552;-69
2023/06/08 08:15:28;;;;;;;7.40;2.90;;;;;;;23.48;36.39;101157.29;107376;1251;64602;-71
2023/06/08 08:17:59;;;;;;;8.60;3.00;;;;;;;23.65;36.73;101159.55;107345;1248;61752;-74
2023/06/08 08:20:28;;;;;;;5.70;2.90;;;;;;;23.88;36.86;101155.61;107388;1248;58304;-70
2023/06/08 08:22:57;;;;;;;6.60;2.60;;;;;;;23.99;36.24;101151.07;107276;1245;62156;-70
2023/06/08 08:25:29;;;;;;;6.00;2.70;;;;;;;24.06;35.30;101151.76;107478;1244;61194;-68
2023/06/08 08:27:58;;;;;;;6.20;2.70;;;;;;;23.96;36.07;101151.73;107277;1248;60584;-69
2023/06/08 08:30:28;;;;;;;5.50;2.80;;;;;;;23.99;36.68;101150.23;109725;1241;73744;-69
2023/06/08 08:32:56;;;;;;;5.20;2.70;;;;;;;23.95;37.50;101148.42;109759;1242;62009;-69
2023/06/08 08:35:28;;;;;;;5.20;2.40;;;;;;;24.10;37.44;101144.54;109731;1244;60962;-70
2023/06/08 08:37:58;;;;;;;8.70;2.80;;;;;;;24.23;37.32;101149.35;109671;1241;72437;-71
2023/06/08 08:40:27;;;;;;;8.90;3.10;;;;;;;24.15;37.74;101144.01;109605;1243;72696;-73
2023/06/08 08:43:06;;;;;;;5.20;2.70;;;;;;;24.33;37.38;101141.69;109603;1244;70911;-71
2023/06/08 08:45:37;;;;;;;9.90;2.60;;;;;;;24.25;36.85;101144.23;109480;1244;73881;-70
2023/06/08 08:48:07;;;;;;;5.00;2.70;;;;;;;24.58;36.90;101138.41;109605;1243;62015;-70
2023/06/08 08:50:38;;;;;;;4.50;2.40;;;;;;;24.77;35.47;101136.48;109590;1243;60837;-71
2023/06/08 08:53:09;;;;;;;6.60;2.40;;;;;;;24.25;35.57;101139.73;109579;1245;73252;-71
2023/06/08 08:55:41;;;;;;;5.70;2.80;;;;;;;24.02;36.70;101144.70;109580;1244;71989;-71
2023/06/08 08:58:10;;;;;;;9.50;2.70;;;;;;;24.19;35.83;101141.75;109507;1242;69381;-69
2023/06/08 09:00:39;;;;;;;4.40;2.50;;;;;;;24.67;34.86;101136.43;109304;1244;63848;-66
2023/06/08 09:03:08;;;;;;;5.50;2.60;;;;;;;24.75;34.13;101140.48;109443;1243;61221;-65
2023/06/08 09:05:44;;;;;;;5.80;2.80;;;;;;;24.55;34.76;101138.52;109417;1243;61762;-64
2023/06/08 09:08:12;;;;;;;5.80;2.50;;;;;;;24.66;34.63;101134.87;109445;1244;73080;-66
2023/06/08 09:11:04;;;;;;;5.40;2.80;;;;;;;24.60;33.73;101128.28;109452;1243;72781;-65
2023/06/08 09:13:34;;;;;;;5.70;2.40;;;;;;;24.62;32.06;101125.14;109355;1243;71117;-66
2023/06/08 09:16:16;;;;;;;5.10;2.40;;;;;;;24.61;32.79;101125.04;109316;1245;63612;-68
2023/06/08 09:18:47;;;;;;;7.30;3.50;;;;;;;24.26;33.04;101122.73;109518;1244;57721;-65
2023/06/08 09:21:22;;;;;;;6.80;2.70;;;;;;;24.40;32.39;101122.52;109461;1244;60463;-64
2023/06/08 09:24:17;;;;;;;4.50;2.50;;;;;;;24.77;32.06;101122.87;109498;1244;74676;-68
2023/06/08 09:26:53;;;;;;;3.70;2.40;;;;;;;24.99;32.10;101121.40;109478;1241;71924;-66
2023/06/08 09:29:40;;;;;;;6.40;2.50;;;;;;;25.00;31.87;101126.33;109484;1241;70555;-65
2023/06/08 09:32:16;;;;;;;5.80;2.70;;;;;;;25.02;32.85;101119.69;109629;1242;74555;-70
2023/06/08 09:34:51;;;;;;;5.60;2.70;;;;;;;24.57;34.99;101124.42;109628;1244;61656;-70
2023/06/08 09:37:26;;;;;;;4.30;2.50;;;;;;;24.19;35.72;101123.43;109529;1241;61545;-70
2023/06/08 09:39:56;;;;;;;6.70;2.70;;;;;;;24.42;35.31;101123.74;109565;1241;64055;-69
2023/06/08 09:42:53;;;;;;;4.40;3.00;;;;;;;24.92;34.75;101115.88;109482;1243;61682;-69
2023/06/08 09:45:23;;;;;;;6.90;2.50;;;;;;;25.43;33.47;101107.27;109519;1243;70545;-69
2023/06/08 09:47:52;;;;;;;6.60;2.70;;;;;;;25.41;32.61;101108.11;109702;1242;72133;-69
2023/06/08 09:50:21;;;;;;;10.30;2.60;;;;;;;25.24;32.84;101105.73;109541;1241;61335;-70
2023/06/08 09:52:50;;;;;;;5.00;2.80;;;;;;;25.41;32.32;101109.52;109624;1241;60996;-70
2023/06/08 09:55:20;;;;;;;4.10;2.40;;;;;;;25.52;32.41;101104.71;109559;1241;63442;-69
2023/06/08 09:57:52;;;;;;;7.40;2.90;;;;;;;25.81;32.25;101106.33;109670;1241;61476;-70
2023/06/08 10:00:25;;;;;;;6.30;2.90;;;;;;;25.92;31.59;101095.54;109550;1242;59284;-70
2023/06/08 10:03:16;;;;;;;6.30;2.30;;;;;;;26.00;30.15;101094.86;109534;1242;65063;-69
2023/06/08 10:05:46;;;;;;;6.40;2.40;;;;;;;26.09;29.14;101098.38;109480;1244;57252;-69
2023/06/08 10:08:21;;;;;;;4.40;2.30;;;;;;;25.82;28.97;101098.38;109545;1242;57712;-69
2023/06/08 10:10:50;;;;;;;7.90;2.80;;;;;;;26.06;29.42;101096.80;109703;1241;62177;-70
2023/06/08 10:13:22;;;;;;;5.50;2.90;;;;;;;26.13;30.04;101091.54;109640;1243;61221;-72
2023/06/08 10:15:53;;;;;;;7.40;2.70;;;;;;;26.21;30.62;101085.61;109535;1243;61776;-69
2023/06/08 10:18:27;;;;;;;7.70;2.70;;;;;;;26.33;31.38;101079.25;109604;1244;73774;-69
2023/06/08 10:20:57;;;;;;;6.20;2.50;;;;;;;26.60;30.79;101074.03;109596;1243;57453;-70
2023/06/08 10:23:26;;;;;;;5.00;2.70;;;;;;;26.56;30.32;101068.96;109572;1244;60904;-70
2023/06/08 10:25:56;;;;;;;6.30;2.70;;;;;;;26.93;29.78;101067.96;109476;1243;65155;-70
2023/06/08 10:28:24;;;;;;;5.50;2.60;;;;;;;26.87;29.40;101063.73;109535;1244;72213;-71
2023/06/08 10:30:54;;;;;;;13.50;2.40;;;;;;;26.58;30.41;101067.46;109678;1241;70838;-69
2023/06/08 10:33:24;;;;;;;4.50;2.60;;;;;;;27.01;30.06;101065.55;109669;1242;73786;-69
2023/06/08 10:36:10;;;;;;;5.80;2.70;;;;;;;26.99;30.60;101064.81;109651;1244;57585;-69
2023/06/08 10:38:57;;;;;;;4.80;2.40;;;;;;;27.29;30.16;101065.78;109510;1243;57704;-68
2023/06/08 10:41:53;;;;;;;6.00;2.60;;;;;;;27.10;29.48;101065.40;109471;1241;73793;-68
2023/06/08 10:44:25;;;;;;;6.30;2.90;;;;;;;26.55;30.35;101062.20;109658;1243;61178;-69
2023/06/08 10:47:08;;;;;;;;;;;;;;;26.84;28.92;101063.13;109482;1241;71109;-69
2023/06/08 10:49:45;;;;;;;7.40;2.50;;;;;;;26.89;27.45;101061.41;109632;1242;64055;-69
2023/06/08 10:52:20;;;;;;;5.30;2.60;;;;;;;26.76;26.99;101056.36;109606;1243;57717;-69
2023/06/08 10:55:13;;;;;;;4.30;2.50;;;;;;;26.55;27.37;101056.48;109612;1241;57729;-69
2023/06/08 10:57:50;;;;;;;4.50;2.50;;;;;;;26.64;27.81;101057.01;109595;1241;72273;-68
2023/06/08 11:00:42;;;;;;;4.20;2.30;;;;;;;27.20;28.14;101051.63;109708;1243;71904;-68
2023/06/08 11:03:20;;;;;;;5.70;2.40;;;;;;;27.17;28.41;101046.25;109710;1241;71060;-70
2023/06/08 11:05:53;;;;;;;6.80;2.50;;;;;;;26.96;28.67;101047.70;109671;1242;64032;-69
2023/06/08 11:08:22;;;;;;;7.70;2.70;;;;;;;27.10;28.44;101037.41;109605;1241;57152;-69
2023/06/08 11:10:53;;;;;;;8.30;2.40;;;;;;;27.37;27.49;101037.85;109694;1243;57672;-71
2023/06/08 11:13:23;;;;;;;5.80;2.30;;;;;;;27.67;25.28;101041.55;109402;1243;62999;-69
2023/06/08 11:15:51;;;;;;;3.90;2.20;;;;;;;27.59;24.68;101036.70;109477;1241;72124;-68
2023/06/08 11:18:20;;;;;;;4.00;2.40;;;;;;;27.30;24.51;101032.92;109589;1241;71004;-68
2023/06/08 11:20:50;;;;;;;3.90;2.40;;;;;;;27.49;24.33;101038.20;109682;1241;62933;-69
2023/06/08 11:23:19;;;;;;;5.40;2.60;;;;;;;27.94;22.93;101032.77;109603;1244;58430;-69
2023/06/08 11:25:49;;;;;;;5.70;2.20;;;;;;;28.44;22.67;101032.48;109529;1241;57163;-68
2023/06/08 11:28:18;;;;;;;4.50;2.50;;;;;;;28.13;21.61;101032.61;109568;1243;63653;-68
2023/06/08 11:30:47;;;;;;;4.30;2.10;;;;;;;28.17;22.21;101030.40;109678;1241;70448;-69
2023/06/08 11:33:18;;;;;;;6.90;2.40;;;;;;;28.40;23.37;101025.16;109636;1243;70783;-69
2023/06/08 11:35:52;;;;;;;6.30;2.50;;;;;;;28.49;23.93;101023.33;109478;1243;65262;-70
2023/06/08 11:38:25;;;;;;;5.00;2.60;;;;;;;28.26;24.19;101023.50;109557;1244;61675;-70
2023/06/08 11:40:58;;;;;;;3.90;2.10;;;;;;;28.58;24.11;101019.16;109492;1244;60866;-70
2023/06/08 11:43:26;;;;;;;6.70;2.70;;;;;;;29.06;22.89;101015.02;109607;1243;73146;-72
2023/06/08 11:45:58;;;;;;;4.60;2.60;;;;;;;29.55;22.83;101015.02;109628;1243;63147;-69
2023/06/08 11:48:27;;;;;;;4.50;2.20;;;;;;;30.07;22.05;101013.35;109630;1242;59570;-70
2023/06/08 11:50:56;;;;;;;4.70;2.40;;;;;;;30.47;21.83;101011.82;109482;1243;63418;-70
2023/06/08 11:53:25;;;;;;;5.10;2.30;;;;;;;30.04;22.14;101008.73;109570;1244;61931;-70
2023/06/08 11:55:55;;;;;;;9.00;2.60;;;;;;;29.37;23.08;101008.81;109449;1243;57730;-70
2023/06/08 11:58:29;;;;;;;6.20;2.30;;;;;;;29.73;22.27;101009.90;109435;1243;62971;-70
2023/06/08 12:01:11;;;;;;;5.20;2.10;;;;;;;29.85;22.05;101007.70;109543;1243;72138;-70
2023/06/08 12:03:47;;;;;;;5.80;2.40;;;;;;;30.16;22.30;101008.22;109622;1243;60318;-70
2023/06/08 12:06:24;;;;;;;4.60;2.20;;;;;;;29.71;23.07;101009.84;109585;1244;73902;-70
2023/06/08 12:08:54;;;;;;;7.50;2.60;;;;;;;29.43;23.41;101014.48;109501;1245;61513;-70
2023/06/08 12:11:24;;;;;;;6.10;2.30;;;;;;;29.21;23.79;101014.61;109626;1243;61469;-69
2023/06/08 12:13:56;;;;;;;4.10;2.10;;;;;;;29.20;24.02;101010.59;109678;1243;74102;-71
2023/06/08 12:16:24;;;;;;;4.90;2.40;;;;;;;29.91;23.44;101007.67;109657;1243;71633;-70
2023/06/08 12:18:56;;;;;;;4.10;2.40;;;;;;;30.30;23.45;101008.61;109579;1242;61153;-69
2023/06/08 12:21:25;;;;;;;4.60;2.70;;;;;;;30.28;23.43;101004.61;109453;1244;65045;-70
2023/06/08 12:23:53;;;;;;;6.20;3.20;;;;;;;29.93;23.22;101004.54;109624;1244;61886;-70
2023/06/08 12:26:26;;;;;;;4.20;2.30;;;;;;;29.89;23.60;101004.85;109665;1242;58131;-71
2023/06/08 12:28:54;;;;;;;6.80;2.30;;;;;;;29.61;23.70;101001.80;109681;1243;64869;-69
2023/06/08 12:31:23;;;;;;;5.70;2.70;;;;;;;28.91;24.29;101001.63;109490;1242;62166;-71
2023/06/08 12:33:52;;;;;;;6.00;2.60;;;;;;;29.56;23.88;101000.23;109578;1244;59245;-68
2023/06/08 12:36:23;;;;;;;4.00;2.20;;;;;;;30.33;23.06;100996.22;109699;1241;62508;-70
2023/06/08 12:38:52;;;;;;;3.70;2.30;;;;;;;30.25;22.89;100992.83;109652;1244;57617;-70
2023/06/08 12:41:22;;;;;;;5.10;2.60;;;;;;;29.87;23.32;100992.25;109704;1241;57229;-69
2023/06/08 12:43:51;;;;;;;5.60;2.20;;;;;;;30.09;23.21;100992.52;109659;1244;62906;-70
2023/06/08 12:46:21;;;;;;;7.30;2.20;;;;;;;29.89;23.44;100993.75;109602;1241;60917;-71
2023/06/08 12:48:51;;;;;;;4.80;2.60;;;;;;;30.04;23.19;100989.98;109660;1241;59260;-70
2023/06/08 12:51:20;;;;;;;6.20;2.20;;;;;;;31.18;21.96;100987.48;109595;1241;73798;-69
2023/06/08 12:53:48;;;;;;;4.20;2.20;;;;;;;31.07;22.34;100985.72;109642;1244;61532;-69
2023/06/08 12:56:17;;;;;;;8.30;2.70;;;;;;;32.03;21.06;100987.92;109687;1244;57702;-70
2023/06/08 12:58:46;;;;;;;6.30;2.40;;;;;;;30.99;22.21;100992.18;109713;1244;62964;-70
2023/06/08 13:01:15;;;;;;;5.60;2.40;;;;;;;30.78;22.75;100992.25;109672;1241;62712;-69
2023/06/08 13:03:43;;;;;;;6.80;2.60;;;;;;;30.97;22.72;100991.04;109546;1241;70054;-69
2023/06/08 13:06:14;;;;;;;6.40;2.50;;;;;;;31.02;22.66;100987.95;109493;1241;64436;-69
2023/06/08 13:08:42;;;;;;;5.20;2.60;;;;;;;31.07;23.14;100985.27;109456;1245;57754;-70
2023/06/08 13:11:11;;;;;;;5.00;2.20;;;;;;;30.65;23.46;100978.80;109648;1244;57436;-70
2023/06/08 13:13:40;;;;;;;5.10;2.70;;;;;;;30.86;23.69;100978.95;109743;1244;62184;-70
2023/06/08 13:16:09;;;;;;;4.90;2.30;;;;;;;31.61;22.85;100985.66;109751;1241;61819;-69
2023/06/08 13:18:38;;;;;;;5.50;2.10;;;;;;;31.70;22.65;100982.34;109666;1241;60684;-70
2023/06/08 13:21:08;;;;;;;5.90;2.40;;;;;;;32.22;22.26;100976.97;109625;1241;63267;-69
2023/06/08 13:23:37;;;;;;;7.00;2.10;;;;;;;32.23;22.41;100973.67;109711;1244;57284;-69
2023/06/08 13:26:06;;;;;;;4.20;2.10;;;;;;;31.47;22.59;100970.34;109636;1244;57676;-69
2023/06/08 13:28:36;;;;;;;6.10;2.50;;;;;;;32.18;21.96;100968.83;109725;1241;64779;-69
2023/06/08 13:31:04;;;;;;;9.50;2.60;;;;;;;31.80;21.76;100966.42;109692;1241;63022;-73
2023/06/08 13:33:33;;;;;;;4.40;2.40;;;;;;;31.18;22.18;100965.56;109716;1241;70982;-70
2023/06/08 13:36:02;;;;;;;4.60;2.20;;;;;;;30.51;23.08;100959.30;109662;1244;64153;-70
2023/06/08 13:38:31;;;;;;;5.30;2.10;;;;;;;30.35;23.81;100958.18;109677;1244;57166;-72
2023/06/08 13:41:00;;;;;;;7.70;2.50;;;;;;;30.97;23.74;100955.54;109530;1241;57734;-75
2023/06/08 13:43:29;;;;;;;5.10;2.60;;;;;;;30.18;24.57;100954.77;109710;1241;72775;-72
2023/06/08 13:45:58;;;;;;;5.30;2.30;;;;;;;30.18;25.08;100957.45;109693;1241;63796;-70
2023/06/08 13:48:27;;;;;;;6.80;2.60;;;;;;;30.63;25.12;100950.66;109693;1244;60429;-70
2023/06/08 13:50:56;;;;;;;2.50;1.60;;;;;;;30.85;24.73;100952.41;109393;1244;63260;-72
2023/06/08 13:53:25;;;;;;;8.20;2.40;;;;;;;31.77;23.68;100950.23;109466;1244;60517;-72
2023/06/08 13:55:54;;;;;;;6.60;2.60;;;;;;;31.99;23.39;100950.63;109478;1241;60360;-70
2023/06/08 13:58:23;;;;;;;3.50;2.00;;;;;;;31.01;24.45;100950.98;109561;1244;63474;-71
2023/06/08 14:00:52;;;;;;;7.50;2.30;;;;;;;30.57;24.74;100950.58;109479;1245;61630;-72
2023/06/08 14:03:21;;;;;;;8.80;2.90;;;;;;;30.21;25.29;100953.56;109421;1245;59984;-72
2023/06/08 14:05:50;;;;;;;6.50;2.30;;;;;;;30.34;24.74;100957.89;109657;1244;63246;-70
2023/06/08 14:08:19;;;;;;;7.10;2.50;;;;;;;31.02;23.88;100956.73;109648;1241;61229;-70
2023/06/08 14:10:47;;;;;;;4.80;2.40;;;;;;;31.57;23.27;100953.10;109697;1241;61718;-69
2023/06/08 14:13:21;;;;;;;4.70;2.40;;;;;;;30.95;24.22;100950.59;109627;1242;74811;-72
2023/06/08 14:15:50;;;;;;;4.80;2.40;;;;;;;31.17;23.89;100953.48;109305;1241;73178;-71
2023/06/08 14:18:19;;;;;;;5.20;2.30;;;;;;;31.23;23.89;100952.84;109614;1241;61479;-71
2023/06/08 14:20:52;;;;;;;6.40;2.40;;;;;;;31.52;23.76;100956.45;109477;1243;73542;-71
2023/06/08 14:23:20;;;;;;;6.20;2.80;;;;;;;31.30;24.21;100953.02;109282;1245;61580;-71
2023/06/08 14:25:49;;;;;;;6.90;2.30;;;;;;;31.31;24.31;100952.05;109437;1245;58188;-72
2023/06/08 14:28:18;;;;;;;4.40;2.30;;;;;;;30.06;25.32;100945.30;109478;1246;62258;-73
2023/06/08 14:30:47;;;;;;;7.50;2.50;;;;;;;29.57;26.09;100947.45;109615;1244;61106;-71
2023/06/08 14:33:16;;;;;;;4.60;2.40;;;;;;;29.76;26.24;100951.42;109598;1244;60027;-72
2023/06/08 14:35:47;;;;;;;5.70;2.50;;;;;;;29.45;26.74;100951.91;109529;1245;63276;-71
2023/06/08 14:38:19;;;;;;;4.70;2.20;;;;;;;29.29;27.07;100947.38;109410;1245;57224;-71
2023/06/08 14:40:48;;;;;;;4.40;2.40;;;;;;;29.20;27.54;100946.84;109339;1247;57696;-70
2023/06/08 14:43:17;;;;;;;5.60;2.30;;;;;;;29.65;27.12;100939.70;109391;1245;63001;-71
2023/06/08 14:45:46;;;;;;;6.50;2.50;;;;;;;30.21;26.70;100944.29;109235;1247;61702;-71
2023/06/08 14:48:18;;;;;;;4.30;2.70;;;;;;;30.08;26.95;100940.20;109366;1244;69779;-71
2023/06/08 14:50:47;;;;;;;11.80;3.00;;;;;;;30.51;26.63;100938.86;109488;1241;65582;-70
2023/06/08 14:53:15;;;;;;;5.90;2.40;;;;;;;30.13;26.52;100939.48;109432;1242;62402;-70
2023/06/08 14:55:44;;;;;;;6.80;2.70;;;;;;;30.78;25.55;100941.38;109273;1247;61750;-70
2023/06/08 14:58:13;;;;;;;8.30;2.60;;;;;;;30.33;26.44;100937.38;109419;1244;73378;-70
2023/06/08 15:00:42;;;;;;;4.40;2.30;;;;;;;29.52;27.52;100934.54;109368;1245;72875;-70
2023/06/08 15:03:11;;;;;;;7.00;2.50;;;;;;;29.54;27.74;100937.09;109214;1245;60742;-70
2023/06/08 15:05:42;;;;;;;8.60;2.90;;;;;;;29.76;27.57;100932.75;109447;1245;62550;-70
2023/06/08 15:08:11;;;;;;;5.70;2.80;;;;;;;29.60;28.03;100928.70;109502;1243;57619;-70
2023/06/08 15:10:40;;;;;;;6.80;2.70;;;;;;;30.07;27.24;100925.32;109348;1243;60449;-70
2023/06/08 15:13:09;;;;;;;5.30;2.50;;;;;;;29.76;27.63;100923.13;109364;1244;74671;-70
2023/06/08 15:15:39;;;;;;;6.50;2.70;;;;;;;29.47;28.22;100918.55;109447;1245;73238;-70
2023/06/08 15:18:09;;;;;;;4.10;2.40;;;;;;;29.24;28.68;100919.27;109417;1243;60985;-69
2023/06/08 15:20:38;;;;;;;4.60;2.40;;;;;;;30.25;27.57;100914.77;109389;1243;73853;-70
2023/06/08 15:23:09;;;;;;;7.70;2.50;;;;;;;30.27;27.45;100916.67;109459;1244;57744;-70
2023/06/08 15:25:37;;;;;;;5.30;2.60;;;;;;;29.82;27.94;100913.84;109413;1242;61175;-71
2023/06/08 15:28:06;;;;;;;7.10;2.70;;;;;;;29.71;28.52;100916.30;109333;1245;64912;-71
2023/06/08 15:30:35;;;;;;;6.10;2.60;;;;;;;29.61;28.83;100909.48;109237;1244;61728;-71
2023/06/08 15:33:04;;;;;;;7.70;2.90;;;;;;;30.17;27.95;100906.01;109375;1244;60699;-71
2023/06/08 15:35:33;;;;;;;5.90;2.70;;;;;;;30.02;28.30;100911.83;109397;1244;63085;-70
2023/06/08 15:38:02;;;;;;;8.80;3.00;;;;;;;29.65;28.84;100909.42;109506;1244;57551;-71
2023/06/08 15:40:31;;;;;;;4.30;2.50;;;;;;;29.34;29.41;100906.34;109405;1245;57709;-70
2023/06/08 15:43:00;;;;;;;6.20;2.50;;;;;;;30.18;28.47;100909.52;109501;1245;64345;-71
2023/06/08 15:45:28;;;;;;;6.30;2.40;;;;;;;30.75;27.54;100909.21;109588;1245;62928;-71
2023/06/08 15:47:57;;;;;;;6.30;2.50;;;;;;;29.99;28.60;100907.71;109584;1244;60493;-71
2023/06/08 15:50:26;;;;;;;6.30;2.80;;;;;;;30.25;28.47;100908.34;109376;1243;62749;-71
2023/06/08 15:52:55;;;;;;;9.90;2.70;;;;;;;30.13;28.44;100907.52;109597;1244;57592;-70
2023/06/08 15:55:24;;;;;;;6.90;2.50;;;;;;;29.02;30.00;100906.88;109499;1243;57755;-69
2023/06/08 15:57:54;;;;;;;8.50;2.90;;;;;;;28.19;31.14;100905.79;109583;1242;63997;-77
2023/06/08 16:00:23;;;;;;;6.80;2.70;;;;;;;27.94;31.79;100901.95;109452;1242;62125;-71
2023/06/08 16:02:52;;;;;;;7.40;2.70;;;;;;;27.93;32.02;100901.88;109579;1243;59228;-71
2023/06/08 16:05:21;;;;;;;4.50;2.40;;;;;;;27.99;32.21;100901.87;109556;1244;62425;-71
2023/06/08 16:07:50;;;;;;;6.00;2.60;;;;;;;28.48;30.96;100897.13;109592;1245;57122;-71
2023/06/08 16:10:19;;;;;;;8.50;2.60;;;;;;;28.40;31.11;100898.41;109641;1241;62389;-71
2023/06/08 16:12:47;;;;;;;9.00;3.30;;;;;;;28.76;30.48;100896.08;109700;1241;64408;-70
2023/06/08 16:15:16;;;;;;;6.80;3.10;;;;;;;29.01;30.26;100893.63;109572;1241;72219;-71
2023/06/08 16:17:46;;;;;;;8.00;3.00;;;;;;;28.83;31.16;100894.52;109619;1241;62130;-71